sensor_id;sensor_type;location;lat;lon;timestamp;pressure;altitude;pressure_sealevel;temperature;humidity
69528;BME280;57136;51.986;4.468;2023-03-17T00:01:17;100797.72;;;9.97;71.82
69528;BME280;57136;51.986;4.468;2023-03-17T00:03:44;100793.44;;;10.03;70.41
69528;BME280;57136;51.986;4.468;2023-03-17T00:06:27;100787.34;;;9.98;71.27
69528;BME280;57136;51.986;4.468;2023-03-17T00:08:53;100785.59;;;9.99;71.38
69528;BME280;57136;51.986;4.468;2023-03-17T00:11:19;100783.75;;;9.82;72.23
69528;BME280;57136;51.986;4.468;2023-03-17T00:13:46;100778.50;;;9.76;73.16
69528;BME280;57136;51.986;4.468;2023-03-17T00:16:17;100782.75;;;9.62;74.54
69528;BME280;57136;51.986;4.468;2023-03-17T00:18:47;100781.81;;;9.53;74.89
69528;BME280;57136;51.986;4.468;2023-03-17T00:21:15;100771.31;;;9.41;75.82
69528;BME280;57136;51.986;4.468;2023-03-17T00:23:46;100770.44;;;9.42;76.54
69528;BME280;57136;51.986;4.468;2023-03-17T00:26:12;100779.06;;;9.38;75.52
69528;BME280;57136;51.986;4.468;2023-03-17T00:28:38;100779.84;;;9.24;76.75
69528;BME280;57136;51.986;4.468;2023-03-17T00:31:19;100784.16;;;9.22;76.57
69528;BME280;57136;51.986;4.468;2023-03-17T00:33:47;100789.34;;;9.24;76.79
69528;BME280;57136;51.986;4.468;2023-03-17T00:36:18;100785.88;;;9.20;77.20
69528;BME280;57136;51.986;4.468;2023-03-17T00:38:44;100790.25;;;9.24;76.99
69528;BME280;57136;51.986;4.468;2023-03-17T00:41:10;100785.00;;;9.20;77.62
69528;BME280;57136;51.986;4.468;2023-03-17T00:43:36;100764.22;;;9.20;78.00
69528;BME280;57136;51.986;4.468;2023-03-17T00:46:09;100763.34;;;9.24;77.83
69528;BME280;57136;51.986;4.468;2023-03-17T00:48:35;100755.59;;;9.27;77.68
69528;BME280;57136;51.986;4.468;2023-03-17T00:51:01;100773.94;;;9.42;76.68
69528;BME280;57136;51.986;4.468;2023-03-17T00:53:26;100779.06;;;9.35;77.08
69528;BME280;57136;51.986;4.468;2023-03-17T00:55:51;100776.41;;;9.30;77.91
69528;BME280;57136;51.986;4.468;2023-03-17T00:58:30;100784.31;;;9.39;77.27
69528;BME280;57136;51.986;4.468;2023-03-17T01:00:57;100782.50;;;9.32;77.79
69528;BME280;57136;51.986;4.468;2023-03-17T01:03:22;100777.31;;;9.31;78.39
69528;BME280;57136;51.986;4.468;2023-03-17T01:05:50;100781.69;;;9.38;77.35
69528;BME280;57136;51.986;4.468;2023-03-17T01:08:16;100783.47;;;9.40;77.56
69528;BME280;57136;51.986;4.468;2023-03-17T01:10:42;100789.53;;;9.42;77.32
69528;BME280;57136;51.986;4.468;2023-03-17T01:13:10;100781.59;;;9.25;78.12
69528;BME280;57136;51.986;4.468;2023-03-17T01:15:39;100779.09;;;9.41;77.46
69528;BME280;57136;51.986;4.468;2023-03-17T01:18:05;100772.94;;;9.28;78.21
69528;BME280;57136;51.986;4.468;2023-03-17T01:20:32;100772.16;;;9.38;77.44
69528;BME280;57136;51.986;4.468;2023-03-17T01:22:59;100763.50;;;9.41;77.76
69528;BME280;57136;51.986;4.468;2023-03-17T01:25:26;100764.44;;;9.51;76.98
69528;BME280;57136;51.986;4.468;2023-03-17T01:27:53;100760.91;;;9.41;77.29
69528;BME280;57136;51.986;4.468;2023-03-17T01:32:47;100751.31;;;9.31;78.14
69528;BME280;57136;51.986;4.468;2023-03-17T01:35:13;100753.91;;;9.31;78.55
69528;BME280;57136;51.986;4.468;2023-03-17T01:37:39;100748.72;;;9.37;78.17
69528;BME280;57136;51.986;4.468;2023-03-17T01:40:07;100737.41;;;9.30;77.87
69528;BME280;57136;51.986;4.468;2023-03-17T01:42:34;100732.22;;;9.35;78.06
69528;BME280;57136;51.986;4.468;2023-03-17T01:45:01;100744.41;;;9.39;77.81
69528;BME280;57136;51.986;4.468;2023-03-17T01:47:28;100728.03;;;9.48;77.35
69528;BME280;57136;51.986;4.468;2023-03-17T01:49:57;100736.69;;;9.48;76.95
69528;BME280;57136;51.986;4.468;2023-03-17T01:52:25;100737.56;;;9.52;77.26
69528;BME280;57136;51.986;4.468;2023-03-17T01:55:01;100734.94;;;9.49;76.93
69528;BME280;57136;51.986;4.468;2023-03-17T01:57:34;100734.03;;;9.40;77.31
69528;BME280;57136;51.986;4.468;2023-03-17T02:00:07;100727.09;;;9.41;77.54
69528;BME280;57136;51.986;4.468;2023-03-17T02:02:37;100733.34;;;9.66;75.93
69528;BME280;57136;51.986;4.468;2023-03-17T02:05:05;100728.97;;;9.64;76.31
69528;BME280;57136;51.986;4.468;2023-03-17T02:07:32;100724.63;;;9.59;75.79
69528;BME280;57136;51.986;4.468;2023-03-17T02:09:58;100717.69;;;9.58;75.87
69528;BME280;57136;51.986;4.468;2023-03-17T02:12:26;100721.16;;;9.59;76.46
69528;BME280;57136;51.986;4.468;2023-03-17T02:14:53;100722.03;;;9.59;76.21
69528;BME280;57136;51.986;4.468;2023-03-17T02:17:20;100722.84;;;9.54;76.54
69528;BME280;57136;51.986;4.468;2023-03-17T02:19:46;100711.59;;;9.58;76.40
69528;BME280;57136;51.986;4.468;2023-03-17T02:22:12;100716.78;;;9.53;76.79
69528;BME280;57136;51.986;4.468;2023-03-17T02:24:41;100724.59;;;9.58;76.55
69528;BME280;57136;51.986;4.468;2023-03-17T02:29:54;100715.03;;;9.49;76.68
69528;BME280;57136;51.986;4.468;2023-03-17T02:32:20;100724.56;;;9.52;76.22
69528;BME280;57136;51.986;4.468;2023-03-17T02:34:47;100717.53;;;9.40;76.98
69528;BME280;57136;51.986;4.468;2023-03-17T02:37:15;100725.47;;;9.55;76.22
69528;BME280;57136;51.986;4.468;2023-03-17T02:39:41;100721.13;;;9.56;75.14
69528;BME280;57136;51.986;4.468;2023-03-17T02:42:07;100727.31;;;9.72;74.74
69528;BME280;57136;51.986;4.468;2023-03-17T02:44:33;100721.25;;;9.71;75.43
69528;BME280;57136;51.986;4.468;2023-03-17T02:46:59;100716.81;;;9.61;75.86
69528;BME280;57136;51.986;4.468;2023-03-17T02:49:25;100713.41;;;9.70;74.70
69528;BME280;57136;51.986;4.468;2023-03-17T02:51:51;100710.88;;;9.82;74.45
69528;BME280;57136;51.986;4.468;2023-03-17T02:54:17;100721.31;;;9.82;73.30
69528;BME280;57136;51.986;4.468;2023-03-17T02:56:43;100720.41;;;9.80;73.02
69528;BME280;57136;51.986;4.468;2023-03-17T02:59:09;100719.66;;;10.03;71.83
69528;BME280;57136;51.986;4.468;2023-03-17T03:01:34;100712.72;;;10.02;71.97
69528;BME280;57136;51.986;4.468;2023-03-17T03:03:59;100710.16;;;10.08;71.64
69528;BME280;57136;51.986;4.468;2023-03-17T03:06:25;100715.44;;;10.28;71.02
69528;BME280;57136;51.986;4.468;2023-03-17T03:08:52;100718.03;;;10.27;71.27
69528;BME280;57136;51.986;4.468;2023-03-17T03:11:18;100712.78;;;10.20;70.24
69528;BME280;57136;51.986;4.468;2023-03-17T03:13:44;100725.81;;;10.20;70.13
69528;BME280;57136;51.986;4.468;2023-03-17T03:16:09;100736.28;;;10.34;68.57
69528;BME280;57136;51.986;4.468;2023-03-17T03:18:35;100737.28;;;10.58;66.99
69528;BME280;57136;51.986;4.468;2023-03-17T03:21:02;100730.38;;;10.71;66.20
69528;BME280;57136;51.986;4.468;2023-03-17T03:23:28;100723.38;;;10.66;66.30
69528;BME280;57136;51.986;4.468;2023-03-17T03:25:53;100725.16;;;10.76;65.66
69528;BME280;57136;51.986;4.468;2023-03-17T03:28:18;100732.97;;;10.82;65.69
69528;BME280;57136;51.986;4.468;2023-03-17T03:30:44;100745.16;;;10.91;65.16
69528;BME280;57136;51.986;4.468;2023-03-17T03:33:12;100731.22;;;10.83;65.07
69528;BME280;57136;51.986;4.468;2023-03-17T03:35:38;100737.34;;;10.94;65.61
69528;BME280;57136;51.986;4.468;2023-03-17T03:38:04;100739.06;;;11.04;64.48
69528;BME280;57136;51.986;4.468;2023-03-17T03:40:30;100736.47;;;11.04;64.62
69528;BME280;57136;51.986;4.468;2023-03-17T03:42:55;100748.63;;;10.98;64.57
69528;BME280;57136;51.986;4.468;2023-03-17T03:45:21;100751.25;;;11.15;64.76
69528;BME280;57136;51.986;4.468;2023-03-17T03:47:46;100750.38;;;11.06;64.13
69528;BME280;57136;51.986;4.468;2023-03-17T03:50:12;100755.59;;;11.05;64.11
69528;BME280;57136;51.986;4.468;2023-03-17T03:52:37;100764.25;;;10.88;64.60
69528;BME280;57136;51.986;4.468;2023-03-17T03:55:03;100762.53;;;10.90;65.01
69528;BME280;57136;51.986;4.468;2023-03-17T03:57:28;100766.91;;;10.96;64.93
69528;BME280;57136;51.986;4.468;2023-03-17T03:59:54;100770.34;;;10.90;64.84
69528;BME280;57136;51.986;4.468;2023-03-17T04:02:19;100756.44;;;10.87;65.49
69528;BME280;57136;51.986;4.468;2023-03-17T04:04:44;100756.44;;;10.81;65.72
69528;BME280;57136;51.986;4.468;2023-03-17T04:07:12;100746.03;;;10.93;65.48
69528;BME280;57136;51.986;4.468;2023-03-17T04:09:37;100751.25;;;10.85;66.38
69528;BME280;57136;51.986;4.468;2023-03-17T04:12:03;100743.41;;;10.82;65.77
69528;BME280;57136;51.986;4.468;2023-03-17T04:14:29;100755.56;;;10.89;65.80
69528;BME280;57136;51.986;4.468;2023-03-17T04:16:54;100753.84;;;10.87;66.05
69528;BME280;57136;51.986;4.468;2023-03-17T04:19:21;100752.97;;;10.83;65.95
69528;BME280;57136;51.986;4.468;2023-03-17T04:21:47;100757.28;;;10.76;66.49
69528;BME280;57136;51.986;4.468;2023-03-17T04:24:13;100743.38;;;10.77;67.17
69528;BME280;57136;51.986;4.468;2023-03-17T04:26:39;100744.25;;;10.79;66.78
69528;BME280;57136;51.986;4.468;2023-03-17T04:29:06;100743.41;;;10.82;66.20
69528;BME280;57136;51.986;4.468;2023-03-17T04:31:36;100748.59;;;10.77;66.64
69528;BME280;57136;51.986;4.468;2023-03-17T04:34:03;100749.47;;;10.75;67.02
69528;BME280;57136;51.986;4.468;2023-03-17T04:36:29;100732.97;;;10.88;66.37
69528;BME280;57136;51.986;4.468;2023-03-17T04:38:54;100746.00;;;10.84;66.27
69528;BME280;57136;51.986;4.468;2023-03-17T04:41:19;100756.44;;;10.81;67.12
69528;BME280;57136;51.986;4.468;2023-03-17T04:43:45;100750.34;;;10.78;67.23
69528;BME280;57136;51.986;4.468;2023-03-17T04:46:11;100747.78;;;10.94;66.21
69528;BME280;57136;51.986;4.468;2023-03-17T04:48:37;100744.25;;;10.76;66.81
69528;BME280;57136;51.986;4.468;2023-03-17T04:51:02;100752.09;;;10.83;67.50
69528;BME280;57136;51.986;4.468;2023-03-17T04:53:28;100749.47;;;10.83;66.59
69528;BME280;57136;51.986;4.468;2023-03-17T04:55:53;100747.75;;;10.82;67.07
69528;BME280;57136;51.986;4.468;2023-03-17T04:58:18;100729.50;;;10.88;66.76
69528;BME280;57136;51.986;4.468;2023-03-17T05:00:44;100712.13;;;10.98;65.99
69528;BME280;57136;51.986;4.468;2023-03-17T05:03:10;100723.44;;;10.89;67.06
69528;BME280;57136;51.986;4.468;2023-03-17T05:05:36;100723.41;;;10.86;67.00
69528;BME280;57136;51.986;4.468;2023-03-17T05:08:02;100709.53;;;10.94;66.87
69528;BME280;57136;51.986;4.468;2023-03-17T05:10:27;100706.91;;;10.82;66.88
69528;BME280;57136;51.986;4.468;2023-03-17T05:12:52;100692.13;;;10.78;68.27
69528;BME280;57136;51.986;4.468;2023-03-17T05:15:18;100673.03;;;10.87;67.44
69528;BME280;57136;51.986;4.468;2023-03-17T05:17:43;100669.56;;;10.94;66.82
69528;BME280;57136;51.986;4.468;2023-03-17T05:20:09;100703.41;;;10.82;67.38
69528;BME280;57136;51.986;4.468;2023-03-17T05:22:35;100710.38;;;10.83;67.20
69528;BME280;57136;51.986;4.468;2023-03-17T05:25:01;100709.47;;;10.62;69.00
69528;BME280;57136;51.986;4.468;2023-03-17T05:27:28;100706.00;;;10.60;68.78
69528;BME280;57136;51.986;4.468;2023-03-17T05:29:53;100739.00;;;10.61;68.92
69528;BME280;57136;51.986;4.468;2023-03-17T05:32:19;100742.47;;;10.60;68.67
69528;BME280;57136;51.986;4.468;2023-03-17T05:34:45;100731.19;;;10.61;68.77
69528;BME280;57136;51.986;4.468;2023-03-17T05:37:11;100732.03;;;10.44;70.00
69528;BME280;57136;51.986;4.468;2023-03-17T05:39:37;100732.03;;;10.51;69.17
69528;BME280;57136;51.986;4.468;2023-03-17T05:42:03;100722.50;;;10.57;68.77
69528;BME280;57136;51.986;4.468;2023-03-17T05:44:28;100711.25;;;10.69;68.69
69528;BME280;57136;51.986;4.468;2023-03-17T05:46:53;100712.97;;;10.70;68.36
69528;BME280;57136;51.986;4.468;2023-03-17T05:49:19;100703.41;;;10.58;69.39
69528;BME280;57136;51.986;4.468;2023-03-17T05:51:45;100719.00;;;10.41;69.83
69528;BME280;57136;51.986;4.468;2023-03-17T05:54:11;100722.44;;;10.39;69.70
69528;BME280;57136;51.986;4.468;2023-03-17T05:56:37;100717.31;;;10.57;68.73
69528;BME280;57136;51.986;4.468;2023-03-17T05:59:03;100712.06;;;10.51;69.10
69528;BME280;57136;51.986;4.468;2023-03-17T06:01:29;100707.72;;;10.58;69.21
69528;BME280;57136;51.986;4.468;2023-03-17T06:03:55;100705.09;;;10.47;69.72
69528;BME280;57136;51.986;4.468;2023-03-17T06:06:21;100705.97;;;10.51;69.63
69528;BME280;57136;51.986;4.468;2023-03-17T06:08:46;100715.53;;;10.55;69.64
69528;BME280;57136;51.986;4.468;2023-03-17T06:11:12;100706.84;;;10.43;70.32
69528;BME280;57136;51.986;4.468;2023-03-17T06:13:37;100709.38;;;10.35;71.03
69528;BME280;57136;51.986;4.468;2023-03-17T06:16:03;100717.16;;;10.32;70.79
69528;BME280;57136;51.986;4.468;2023-03-17T06:18:28;100726.75;;;10.30;71.09
69528;BME280;57136;51.986;4.468;2023-03-17T06:20:54;100727.69;;;10.48;70.54
69528;BME280;57136;51.986;4.468;2023-03-17T06:23:19;100732.06;;;10.58;69.61
69528;BME280;57136;51.986;4.468;2023-03-17T06:25:45;100732.09;;;10.66;68.81
69528;BME280;57136;51.986;4.468;2023-03-17T06:28:11;100732.06;;;10.68;68.75
69528;BME280;57136;51.986;4.468;2023-03-17T06:30:37;100730.38;;;10.71;69.13
69528;BME280;57136;51.986;4.468;2023-03-17T06:33:03;100719.06;;;10.74;69.63
69528;BME280;57136;51.986;4.468;2023-03-17T06:35:30;100726.91;;;10.80;69.12
69528;BME280;57136;51.986;4.468;2023-03-17T06:37:56;100719.06;;;10.89;69.87
69528;BME280;57136;51.986;4.468;2023-03-17T06:40:22;100722.59;;;10.99;68.62
69528;BME280;57136;51.986;4.468;2023-03-17T06:42:47;100733.88;;;11.06;67.76
69528;BME280;57136;51.986;4.468;2023-03-17T06:45:12;100726.91;;;11.02;68.68
69528;BME280;57136;51.986;4.468;2023-03-17T06:47:38;100720.81;;;11.01;69.86
69528;BME280;57136;51.986;4.468;2023-03-17T06:50:04;100718.25;;;11.12;69.38
69528;BME280;57136;51.986;4.468;2023-03-17T06:52:30;100727.78;;;10.96;69.94
69528;BME280;57136;51.986;4.468;2023-03-17T06:54:55;100728.66;;;10.95;69.70
69528;BME280;57136;51.986;4.468;2023-03-17T06:57:21;100744.28;;;11.04;68.67
69528;BME280;57136;51.986;4.468;2023-03-17T06:59:46;100741.69;;;11.18;67.30
69528;BME280;57136;51.986;4.468;2023-03-17T07:02:11;100749.53;;;11.20;67.28
69528;BME280;57136;51.986;4.468;2023-03-17T07:04:37;100746.03;;;11.33;67.27
69528;BME280;57136;51.986;4.468;2023-03-17T07:07:04;100744.28;;;11.52;66.12
69528;BME280;57136;51.986;4.468;2023-03-17T07:09:30;100733.84;;;11.56;65.71
69528;BME280;57136;51.986;4.468;2023-03-17T07:11:57;100739.09;;;11.45;67.09
69528;BME280;57136;51.986;4.468;2023-03-17T07:14:23;100750.38;;;11.51;66.81
69528;BME280;57136;51.986;4.468;2023-03-17T07:16:49;100737.34;;;11.58;66.11
69528;BME280;57136;51.986;4.468;2023-03-17T07:19:14;100725.13;;;11.64;65.63
69528;BME280;57136;51.986;4.468;2023-03-17T07:21:40;100721.69;;;11.45;66.35
69528;BME280;57136;51.986;4.468;2023-03-17T07:24:06;100724.28;;;11.51;67.96
69528;BME280;57136;51.986;4.468;2023-03-17T07:26:31;100734.66;;;11.86;66.39
69528;BME280;57136;51.986;4.468;2023-03-17T07:28:57;100740.75;;;11.89;68.21
69528;BME280;57136;51.986;4.468;2023-03-17T07:31:25;100740.78;;;11.77;67.49
69528;BME280;57136;51.986;4.468;2023-03-17T07:33:50;100745.97;;;12.02;67.96
69528;BME280;57136;51.986;4.468;2023-03-17T07:36:16;100761.63;;;12.00;68.74
69528;BME280;57136;51.986;4.468;2023-03-17T07:38:41;100764.16;;;12.33;67.48
69528;BME280;57136;51.986;4.468;2023-03-17T07:41:07;100764.97;;;12.42;64.43
69528;BME280;57136;51.986;4.468;2023-03-17T07:43:35;100760.50;;;12.68;63.18
69528;BME280;57136;51.986;4.468;2023-03-17T07:46:01;100750.06;;;12.65;62.19
69528;BME280;57136;51.986;4.468;2023-03-17T07:48:27;100750.97;;;12.56;62.90
69528;BME280;57136;51.986;4.468;2023-03-17T07:50:52;100745.78;;;12.53;62.40
69528;BME280;57136;51.986;4.468;2023-03-17T07:53:21;100751.03;;;12.45;61.81
69528;BME280;57136;51.986;4.468;2023-03-17T07:55:47;100752.66;;;12.69;61.01
69528;BME280;57136;51.986;4.468;2023-03-17T07:58:12;100744.75;;;12.82;61.44
69528;BME280;57136;51.986;4.468;2023-03-17T08:00:37;100757.81;;;12.80;60.75
69528;BME280;57136;51.986;4.468;2023-03-17T08:03:03;100756.97;;;12.72;60.17
69528;BME280;57136;51.986;4.468;2023-03-17T08:05:29;100738.59;;;12.86;60.71
69528;BME280;57136;51.986;4.468;2023-03-17T08:07:55;100743.00;;;12.79;60.38
69528;BME280;57136;51.986;4.468;2023-03-17T08:10:20;100742.16;;;12.79;62.60
69528;BME280;57136;51.986;4.468;2023-03-17T08:12:46;100756.94;;;12.81;61.50
69528;BME280;57136;51.986;4.468;2023-03-17T08:15:16;100760.38;;;12.89;61.72
69528;BME280;57136;51.986;4.468;2023-03-17T08:17:41;100742.19;;;12.72;62.34
69528;BME280;57136;51.986;4.468;2023-03-17T08:20:07;100744.03;;;12.53;62.69
69528;BME280;57136;51.986;4.468;2023-03-17T08:22:33;100743.03;;;12.70;62.46
69528;BME280;57136;51.986;4.468;2023-03-17T08:24:59;100741.00;;;13.18;60.37
69528;BME280;57136;51.986;4.468;2023-03-17T08:27:24;100748.88;;;13.12;61.40
69528;BME280;57136;51.986;4.468;2023-03-17T08:29:49;100752.28;;;13.22;60.70
69528;BME280;57136;51.986;4.468;2023-03-17T08:32:15;100749.53;;;13.39;60.25
69528;BME280;57136;51.986;4.468;2023-03-17T08:34:41;100744.34;;;13.38;60.64
69528;BME280;57136;51.986;4.468;2023-03-17T08:37:08;100746.09;;;13.31;59.99
69528;BME280;57136;51.986;4.468;2023-03-17T08:39:34;100746.91;;;13.44;60.18
69528;BME280;57136;51.986;4.468;2023-03-17T08:42:00;100755.47;;;13.65;60.50
69528;BME280;57136;51.986;4.468;2023-03-17T08:44:26;100746.72;;;13.64;59.28
69528;BME280;57136;51.986;4.468;2023-03-17T08:46:51;100746.00;;;13.48;60.45
69528;BME280;57136;51.986;4.468;2023-03-17T08:49:17;100752.16;;;13.41;60.73
69528;BME280;57136;51.986;4.468;2023-03-17T08:51:42;100755.59;;;13.46;60.74
69528;BME280;57136;51.986;4.468;2023-03-17T08:54:09;100757.28;;;13.56;60.85
69528;BME280;57136;51.986;4.468;2023-03-17T08:56:36;100761.69;;;13.48;60.56
69528;BME280;57136;51.986;4.468;2023-03-17T08:59:03;100759.97;;;13.47;62.06
69528;BME280;57136;51.986;4.468;2023-03-17T09:01:29;100759.84;;;13.61;61.78
69528;BME280;57136;51.986;4.468;2023-03-17T09:03:55;100779.13;;;13.52;61.33
69528;BME280;57136;51.986;4.468;2023-03-17T09:06:21;100778.19;;;13.59;61.69
69528;BME280;57136;51.986;4.468;2023-03-17T09:08:47;100776.44;;;13.57;61.95
69528;BME280;57136;51.986;4.468;2023-03-17T09:11:18;100774.41;;;13.91;60.72
69528;BME280;57136;51.986;4.468;2023-03-17T09:13:45;100774.84;;;14.28;60.02
69528;BME280;57136;51.986;4.468;2023-03-17T09:16:12;100782.38;;;14.57;59.15
69528;BME280;57136;51.986;4.468;2023-03-17T09:18:38;100780.81;;;15.08;57.11
69528;BME280;57136;51.986;4.468;2023-03-17T09:21:04;100788.22;;;15.37;55.05
69528;BME280;57136;51.986;4.468;2023-03-17T09:23:30;100792.00;;;15.72;55.16
69528;BME280;57136;51.986;4.468;2023-03-17T09:25:56;100790.78;;;15.94;53.05
69528;BME280;57136;51.986;4.468;2023-03-17T09:28:22;100795.63;;;15.67;53.61
69528;BME280;57136;51.986;4.468;2023-03-17T09:30:48;100790.38;;;15.12;56.73
69528;BME280;57136;51.986;4.468;2023-03-17T09:33:14;100791.63;;;14.85;57.83
69528;BME280;57136;51.986;4.468;2023-03-17T09:35:40;100803.16;;;14.74;58.39
69528;BME280;57136;51.986;4.468;2023-03-17T09:38:07;100807.59;;;14.64;58.22
69528;BME280;57136;51.986;4.468;2023-03-17T09:40:38;100810.31;;;14.58;59.36
69528;BME280;57136;51.986;4.468;2023-03-17T09:43:33;100814.47;;;14.78;59.22
69528;BME280;57136;51.986;4.468;2023-03-17T09:46:23;100809.00;;;14.93;59.17
69528;BME280;57136;51.986;4.468;2023-03-17T09:51:19;100808.63;;;15.20;57.51
69528;BME280;57136;51.986;4.468;2023-03-17T09:53:53;100817.63;;;15.03;58.19
69528;BME280;57136;51.986;4.468;2023-03-17T09:56:22;100834.66;;;15.34;57.22
69528;BME280;57136;51.986;4.468;2023-03-17T09:58:53;100839.44;;;15.65;56.88
69528;BME280;57136;51.986;4.468;2023-03-17T10:01:21;100838.09;;;16.39;56.78
69528;BME280;57136;51.986;4.468;2023-03-17T10:03:47;100841.69;;;16.79;53.03
69528;BME280;57136;51.986;4.468;2023-03-17T10:06:26;100844.47;;;16.71;53.51
69528;BME280;57136;51.986;4.468;2023-03-17T10:09:31;100835.44;;;16.85;53.46
69528;BME280;57136;51.986;4.468;2023-03-17T10:15:04;100832.97;;;16.33;54.41
69528;BME280;57136;51.986;4.468;2023-03-17T10:17:34;100821.13;;;16.12;55.56
69528;BME280;57136;51.986;4.468;2023-03-17T10:20:07;100822.59;;;16.25;55.02
69528;BME280;57136;51.986;4.468;2023-03-17T10:22:41;100834.97;;;16.20;56.49
69528;BME280;57136;51.986;4.468;2023-03-17T10:25:18;100833.66;;;16.85;54.91
69528;BME280;57136;51.986;4.468;2023-03-17T10:27:52;100834.22;;;17.01;53.90
69528;BME280;57136;51.986;4.468;2023-03-17T10:30:21;100825.00;;;16.36;55.40
69528;BME280;57136;51.986;4.468;2023-03-17T10:32:48;100821.75;;;16.23;56.93
69528;BME280;57136;51.986;4.468;2023-03-17T10:35:15;100826.75;;;16.39;56.62
69528;BME280;57136;51.986;4.468;2023-03-17T10:37:42;100824.19;;;16.34;58.24
69528;BME280;57136;51.986;4.468;2023-03-17T10:40:19;100816.81;;;16.06;57.15
69528;BME280;57136;51.986;4.468;2023-03-17T10:42:48;100812.28;;;16.16;57.33
69528;BME280;57136;51.986;4.468;2023-03-17T10:45:26;100814.44;;;15.94;58.03
69528;BME280;57136;51.986;4.468;2023-03-17T10:47:54;100816.81;;;16.06;57.72
69528;BME280;57136;51.986;4.468;2023-03-17T10:50:29;100823.53;;;16.23;57.50
69528;BME280;57136;51.986;4.468;2023-03-17T10:55:32;100813.59;;;16.39;58.26
69528;BME280;57136;51.986;4.468;2023-03-17T10:58:06;100808.78;;;16.15;59.19
69528;BME280;57136;51.986;4.468;2023-03-17T11:00:35;100805.06;;;16.26;59.32
69528;BME280;57136;51.986;4.468;2023-03-17T11:03:10;100801.03;;;16.08;59.53
69528;BME280;57136;51.986;4.468;2023-03-17T11:05:36;100794.91;;;16.07;60.14
69528;BME280;57136;51.986;4.468;2023-03-17T11:08:14;100803.19;;;16.31;59.72
69528;BME280;57136;51.986;4.468;2023-03-17T11:10:41;100791.31;;;16.13;60.82
69528;BME280;57136;51.986;4.468;2023-03-17T11:13:07;100792.25;;;16.09;59.65
69528;BME280;57136;51.986;4.468;2023-03-17T11:15:36;100784.13;;;15.74;60.69
69528;BME280;57136;51.986;4.468;2023-03-17T11:21:25;100766.94;;;16.03;62.86
69528;BME280;57136;51.986;4.468;2023-03-17T11:24:07;100760.59;;;16.15;61.38
69528;BME280;57136;51.986;4.468;2023-03-17T11:26:44;100757.88;;;16.20;61.27
69528;BME280;57136;51.986;4.468;2023-03-17T11:29:50;100748.81;;;16.33;59.99
69528;BME280;57136;51.986;4.468;2023-03-17T11:32:31;100751.97;;;16.51;59.81
69528;BME280;57136;51.986;4.468;2023-03-17T11:35:32;100764.22;;;16.91;58.73
69528;BME280;57136;51.986;4.468;2023-03-17T11:38:48;100746.53;;;17.35;57.73
69528;BME280;57136;51.986;4.468;2023-03-17T11:46:45;100710.19;;;18.71;51.61
69528;BME280;57136;51.986;4.468;2023-03-17T11:49:17;100731.53;;;18.64;52.26
69528;BME280;57136;51.986;4.468;2023-03-17T11:52:06;100734.47;;;18.83;53.26
69528;BME280;57136;51.986;4.468;2023-03-17T11:57:11;100745.69;;;18.90;51.73
69528;BME280;57136;51.986;4.468;2023-03-17T12:02:27;100748.28;;;18.63;51.65
69528;BME280;57136;51.986;4.468;2023-03-17T12:04:59;100745.75;;;18.30;52.70
69528;BME280;57136;51.986;4.468;2023-03-17T12:07:34;100748.38;;;19.16;50.88
69528;BME280;57136;51.986;4.468;2023-03-17T12:12:36;100754.91;;;20.09;48.77
69528;BME280;57136;51.986;4.468;2023-03-17T12:15:14;100756.31;;;20.19;47.30
69528;BME280;57136;51.986;4.468;2023-03-17T12:17:50;100758.88;;;19.97;49.49
69528;BME280;57136;51.986;4.468;2023-03-17T12:20:28;100767.50;;;20.50;47.11
69528;BME280;57136;51.986;4.468;2023-03-17T12:23:01;100768.31;;;20.52;46.29
69528;BME280;57136;51.986;4.468;2023-03-17T12:29:42;100775.44;;;18.96;50.64
69528;BME280;57136;51.986;4.468;2023-03-17T12:31:47;100784.56;;;18.56;51.81
69528;BME280;57136;51.986;4.468;2023-03-17T12:34:38;100785.00;;;18.10;55.04
69528;BME280;57136;51.986;4.468;2023-03-17T12:37:07;100779.22;;;17.61;56.51
69528;BME280;57136;51.986;4.468;2023-03-17T12:39:34;100779.44;;;17.17;57.35
69528;BME280;57136;51.986;4.468;2023-03-17T12:50:27;100786.53;;;17.50;58.05
69528;BME280;57136;51.986;4.468;2023-03-17T12:55:24;100764.88;;;17.73;57.76
69528;BME280;57136;51.986;4.468;2023-03-17T12:58:00;100761.53;;;17.66;57.68
69528;BME280;57136;51.986;4.468;2023-03-17T13:00:29;100765.63;;;17.78;56.70
69528;BME280;57136;51.986;4.468;2023-03-17T13:03:26;100763.97;;;17.40;58.26
69528;BME280;57136;51.986;4.468;2023-03-17T13:06:06;100762.81;;;17.15;59.96
69528;BME280;57136;51.986;4.468;2023-03-17T13:08:42;100771.81;;;17.05;59.91
69528;BME280;57136;51.986;4.468;2023-03-17T13:11:16;100765.66;;;17.06;61.20
69528;BME280;57136;51.986;4.468;2023-03-17T13:16:36;100773.50;;;17.45;60.00
69528;BME280;57136;51.986;4.468;2023-03-17T13:24:46;100741.59;;;17.56;57.01
69528;BME280;57136;51.986;4.468;2023-03-17T13:29:55;100737.09;;;18.54;56.17
69528;BME280;57136;51.986;4.468;2023-03-17T13:35:05;100734.06;;;19.24;53.06
69528;BME280;57136;51.986;4.468;2023-03-17T13:43:40;100729.47;;;18.74;53.52
69528;BME280;57136;51.986;4.468;2023-03-17T13:46:26;100726.16;;;18.67;54.01
69528;BME280;57136;51.986;4.468;2023-03-17T13:48:54;100724.03;;;18.51;54.12
69528;BME280;57136;51.986;4.468;2023-03-17T13:51:31;100713.50;;;18.78;58.92
69528;BME280;57136;51.986;4.468;2023-03-17T13:54:08;100713.31;;;19.38;54.68
69528;BME280;57136;51.986;4.468;2023-03-17T13:59:19;100709.16;;;19.82;50.04
69528;BME280;57136;51.986;4.468;2023-03-17T14:01:53;100705.16;;;19.95;49.74
69528;BME280;57136;51.986;4.468;2023-03-17T14:04:29;100696.84;;;19.57;54.02
69528;BME280;57136;51.986;4.468;2023-03-17T14:07:04;100706.69;;;19.77;49.79